sensor_id;sensor_type;location;lat;lon;timestamp;P1;durP1;ratioP1;P2;durP2;ratioP2
9773;SDS011;4926;42.670;23.316;2023-01-04T00:01:20;12.60;;;10.40;;
9773;SDS011;4926;42.670;23.316;2023-01-04T00:03:48;16.08;;;11.02;;
9773;SDS011;4926;42.670;23.316;2023-01-04T00:06:18;12.05;;;9.73;;
9773;SDS011;4926;42.670;23.316;2023-01-04T00:08:46;12.68;;;9.52;;
9773;SDS011;4926;42.670;23.316;2023-01-04T00:11:14;11.85;;;8.63;;
9773;SDS011;4926;42.670;23.316;2023-01-04T00:13:43;12.15;;;9.63;;
9773;SDS011;4926;42.670;23.316;2023-01-04T00:16:11;10.77;;;8.93;;
9773;SDS011;4926;42.670;23.316;2023-01-04T00:18:40;13.18;;;9.30;;
9773;SDS011;4926;42.670;23.316;2023-01-04T00:21:07;10.65;;;8.70;;
9773;SDS011;4926;42.670;23.316;2023-01-04T00:23:51;12.70;;;8.68;;
9773;SDS011;4926;42.670;23.316;2023-01-04T00:26:22;12.85;;;9.23;;
9773;SDS011;4926;42.670;23.316;2023-01-04T00:28:53;12.00;;;8.88;;
9773;SDS011;4926;42.670;23.316;2023-01-04T00:31:21;11.23;;;8.43;;
9773;SDS011;4926;42.670;23.316;2023-01-04T00:33:48;9.95;;;8.25;;
9773;SDS011;4926;42.670;23.316;2023-01-04T00:36:16;13.07;;;8.93;;
9773;SDS011;4926;42.670;23.316;2023-01-04T00:38:42;13.10;;;9.38;;
9773;SDS011;4926;42.670;23.316;2023-01-04T00:41:13;12.50;;;8.32;;
9773;SDS011;4926;42.670;23.316;2023-01-04T00:43:40;10.23;;;7.95;;
9773;SDS011;4926;42.670;23.316;2023-01-04T00:46:09;10.13;;;8.20;;
9773;SDS011;4926;42.670;23.316;2023-01-04T00:48:36;13.20;;;9.32;;
9773;SDS011;4926;42.670;23.316;2023-01-04T00:51:08;10.75;;;8.60;;
9773;SDS011;4926;42.670;23.316;2023-01-04T00:53:38;10.70;;;8.35;;
9773;SDS011;4926;42.670;23.316;2023-01-04T00:56:08;10.13;;;7.97;;
9773;SDS011;4926;42.670;23.316;2023-01-04T00:58:36;11.07;;;9.25;;
9773;SDS011;4926;42.670;23.316;2023-01-04T01:01:03;11.15;;;8.82;;
9773;SDS011;4926;42.670;23.316;2023-01-04T01:03:30;11.52;;;9.10;;
9773;SDS011;4926;42.670;23.316;2023-01-04T01:05:59;11.65;;;8.63;;
9773;SDS011;4926;42.670;23.316;2023-01-04T01:08:26;11.98;;;8.88;;
9773;SDS011;4926;42.670;23.316;2023-01-04T01:10:55;12.88;;;9.10;;
9773;SDS011;4926;42.670;23.316;2023-01-04T01:13:27;11.23;;;9.02;;
9773;SDS011;4926;42.670;23.316;2023-01-04T01:16:02;11.73;;;8.82;;
9773;SDS011;4926;42.670;23.316;2023-01-04T01:18:34;12.52;;;9.05;;
9773;SDS011;4926;42.670;23.316;2023-01-04T01:21:03;11.90;;;9.52;;
9773;SDS011;4926;42.670;23.316;2023-01-04T01:23:30;12.05;;;9.55;;
9773;SDS011;4926;42.670;23.316;2023-01-04T01:25:58;11.82;;;9.30;;
9773;SDS011;4926;42.670;23.316;2023-01-04T01:28:30;12.55;;;9.05;;
9773;SDS011;4926;42.670;23.316;2023-01-04T01:31:12;11.20;;;9.50;;
9773;SDS011;4926;42.670;23.316;2023-01-04T01:33:45;12.60;;;9.25;;
9773;SDS011;4926;42.670;23.316;2023-01-04T01:36:13;14.73;;;9.95;;
9773;SDS011;4926;42.670;23.316;2023-01-04T01:38:43;12.65;;;9.63;;
9773;SDS011;4926;42.670;23.316;2023-01-04T01:41:13;12.70;;;9.35;;
9773;SDS011;4926;42.670;23.316;2023-01-04T01:43:50;11.27;;;9.48;;
9773;SDS011;4926;42.670;23.316;2023-01-04T01:46:21;12.93;;;8.88;;
9773;SDS011;4926;42.670;23.316;2023-01-04T01:48:51;12.52;;;9.40;;
9773;SDS011;4926;42.670;23.316;2023-01-04T01:51:22;11.90;;;9.63;;
9773;SDS011;4926;42.670;23.316;2023-01-04T01:53:52;13.90;;;9.88;;
9773;SDS011;4926;42.670;23.316;2023-01-04T01:56:23;11.75;;;9.68;;
9773;SDS011;4926;42.670;23.316;2023-01-04T01:58:53;11.88;;;9.27;;
9773;SDS011;4926;42.670;23.316;2023-01-04T02:01:25;15.32;;;10.05;;
9773;SDS011;4926;42.670;23.316;2023-01-04T02:03:56;12.32;;;9.43;;
9773;SDS011;4926;42.670;23.316;2023-01-04T02:06:24;15.65;;;10.15;;
9773;SDS011;4926;42.670;23.316;2023-01-04T02:08:55;12.43;;;9.32;;
9773;SDS011;4926;42.670;23.316;2023-01-04T02:11:22;15.00;;;10.50;;
9773;SDS011;4926;42.670;23.316;2023-01-04T02:13:48;14.10;;;10.55;;
9773;SDS011;4926;42.670;23.316;2023-01-04T02:16:39;15.60;;;10.68;;
9773;SDS011;4926;42.670;23.316;2023-01-04T02:22:47;13.25;;;10.93;;
9773;SDS011;4926;42.670;23.316;2023-01-04T02:25:46;13.30;;;10.50;;
9773;SDS011;4926;42.670;23.316;2023-01-04T02:28:48;14.07;;;11.68;;
9773;SDS011;4926;42.670;23.316;2023-01-04T02:31:36;13.73;;;10.55;;
9773;SDS011;4926;42.670;23.316;2023-01-04T02:34:11;14.23;;;11.20;;
9773;SDS011;4926;42.670;23.316;2023-01-04T02:36:47;16.05;;;11.48;;
9773;SDS011;4926;42.670;23.316;2023-01-04T02:39:26;16.73;;;10.65;;
9773;SDS011;4926;42.670;23.316;2023-01-04T02:42:01;15.80;;;10.65;;
9773;SDS011;4926;42.670;23.316;2023-01-04T02:44:34;14.15;;;11.32;;
9773;SDS011;4926;42.670;23.316;2023-01-04T02:47:23;14.63;;;10.88;;
9773;SDS011;4926;42.670;23.316;2023-01-04T02:50:20;14.00;;;10.82;;
9773;SDS011;4926;42.670;23.316;2023-01-04T02:53:05;16.88;;;11.40;;
9773;SDS011;4926;42.670;23.316;2023-01-04T02:55:39;15.05;;;11.57;;
9773;SDS011;4926;42.670;23.316;2023-01-04T02:58:17;16.60;;;11.70;;
9773;SDS011;4926;42.670;23.316;2023-01-04T03:00:58;13.88;;;10.35;;
9773;SDS011;4926;42.670;23.316;2023-01-04T03:03:58;18.08;;;12.13;;
9773;SDS011;4926;42.670;23.316;2023-01-04T03:06:53;16.40;;;11.10;;
9773;SDS011;4926;42.670;23.316;2023-01-04T03:09:26;14.50;;;11.35;;
9773;SDS011;4926;42.670;23.316;2023-01-04T03:12:01;14.77;;;11.40;;
9773;SDS011;4926;42.670;23.316;2023-01-04T03:14:50;15.13;;;11.82;;
9773;SDS011;4926;42.670;23.316;2023-01-04T03:17:19;15.40;;;11.90;;
9773;SDS011;4926;42.670;23.316;2023-01-04T03:19:49;17.77;;;12.85;;
9773;SDS011;4926;42.670;23.316;2023-01-04T03:22:28;16.38;;;12.07;;
9773;SDS011;4926;42.670;23.316;2023-01-04T03:25:20;16.05;;;12.50;;
9773;SDS011;4926;42.670;23.316;2023-01-04T03:28:07;17.70;;;12.38;;
9773;SDS011;4926;42.670;23.316;2023-01-04T03:31:03;16.63;;;11.13;;
9773;SDS011;4926;42.670;23.316;2023-01-04T03:33:53;16.38;;;12.13;;
9773;SDS011;4926;42.670;23.316;2023-01-04T03:36:46;16.48;;;12.48;;
9773;SDS011;4926;42.670;23.316;2023-01-04T03:39:20;21.02;;;13.35;;
9773;SDS011;4926;42.670;23.316;2023-01-04T03:42:16;15.48;;;11.68;;
9773;SDS011;4926;42.670;23.316;2023-01-04T03:45:09;16.83;;;12.93;;
9773;SDS011;4926;42.670;23.316;2023-01-04T03:48:01;14.80;;;10.45;;
9773;SDS011;4926;42.670;23.316;2023-01-04T03:50:51;19.30;;;12.65;;
9773;SDS011;4926;42.670;23.316;2023-01-04T03:53:25;17.13;;;12.20;;
9773;SDS011;4926;42.670;23.316;2023-01-04T03:55:53;15.20;;;12.02;;
9773;SDS011;4926;42.670;23.316;2023-01-04T03:58:24;17.92;;;12.02;;
9773;SDS011;4926;42.670;23.316;2023-01-04T04:00:52;15.00;;;11.63;;
9773;SDS011;4926;42.670;23.316;2023-01-04T04:03:28;16.25;;;12.25;;
9773;SDS011;4926;42.670;23.316;2023-01-04T04:06:13;18.25;;;12.65;;
9773;SDS011;4926;42.670;23.316;2023-01-04T04:08:59;21.13;;;12.32;;
9773;SDS011;4926;42.670;23.316;2023-01-04T04:11:26;16.70;;;12.23;;
9773;SDS011;4926;42.670;23.316;2023-01-04T04:13:56;15.60;;;12.13;;
9773;SDS011;4926;42.670;23.316;2023-01-04T04:16:25;16.33;;;11.77;;
9773;SDS011;4926;42.670;23.316;2023-01-04T04:18:53;18.60;;;11.57;;
9773;SDS011;4926;42.670;23.316;2023-01-04T04:21:20;17.98;;;13.00;;
9773;SDS011;4926;42.670;23.316;2023-01-04T04:23:46;20.98;;;12.75;;
9773;SDS011;4926;42.670;23.316;2023-01-04T04:26:15;17.88;;;12.23;;
9773;SDS011;4926;42.670;23.316;2023-01-04T04:28:42;19.42;;;12.98;;
9773;SDS011;4926;42.670;23.316;2023-01-04T04:31:09;15.82;;;11.50;;
9773;SDS011;4926;42.670;23.316;2023-01-04T04:33:36;17.45;;;11.23;;
9773;SDS011;4926;42.670;23.316;2023-01-04T04:36:05;15.65;;;11.48;;
9773;SDS011;4926;42.670;23.316;2023-01-04T04:38:36;16.58;;;11.55;;
9773;SDS011;4926;42.670;23.316;2023-01-04T04:41:06;13.50;;;10.90;;
9773;SDS011;4926;42.670;23.316;2023-01-04T04:44:08;16.77;;;11.75;;
9773;SDS011;4926;42.670;23.316;2023-01-04T04:46:37;15.98;;;11.82;;
9773;SDS011;4926;42.670;23.316;2023-01-04T04:49:04;13.50;;;10.63;;
9773;SDS011;4926;42.670;23.316;2023-01-04T04:51:31;18.48;;;12.50;;
9773;SDS011;4926;42.670;23.316;2023-01-04T04:54:01;20.35;;;12.55;;
9773;SDS011;4926;42.670;23.316;2023-01-04T04:56:38;17.65;;;12.18;;
9773;SDS011;4926;42.670;23.316;2023-01-04T04:59:05;16.08;;;12.43;;
9773;SDS011;4926;42.670;23.316;2023-01-04T05:01:33;19.17;;;13.13;;
9773;SDS011;4926;42.670;23.316;2023-01-04T05:04:03;16.90;;;12.05;;
9773;SDS011;4926;42.670;23.316;2023-01-04T05:06:32;14.50;;;11.75;;
9773;SDS011;4926;42.670;23.316;2023-01-04T05:08:59;21.42;;;13.13;;
9773;SDS011;4926;42.670;23.316;2023-01-04T05:11:26;16.33;;;11.65;;
9773;SDS011;4926;42.670;23.316;2023-01-04T05:14:10;18.20;;;12.77;;
9773;SDS011;4926;42.670;23.316;2023-01-04T05:16:38;16.70;;;12.85;;
9773;SDS011;4926;42.670;23.316;2023-01-04T05:19:05;20.83;;;12.57;;
9773;SDS011;4926;42.670;23.316;2023-01-04T05:21:34;17.83;;;12.70;;
9773;SDS011;4926;42.670;23.316;2023-01-04T05:24:03;18.98;;;12.98;;
9773;SDS011;4926;42.670;23.316;2023-01-04T05:26:31;16.95;;;13.48;;
9773;SDS011;4926;42.670;23.316;2023-01-04T05:28:58;17.85;;;13.32;;
9773;SDS011;4926;42.670;23.316;2023-01-04T05:31:25;18.90;;;14.52;;
9773;SDS011;4926;42.670;23.316;2023-01-04T05:33:52;18.63;;;14.50;;
9773;SDS011;4926;42.670;23.316;2023-01-04T05:36:21;24.25;;;13.90;;
9773;SDS011;4926;42.670;23.316;2023-01-04T05:38:50;21.08;;;12.82;;
9773;SDS011;4926;42.670;23.316;2023-01-04T05:41:20;21.38;;;13.73;;
9773;SDS011;4926;42.670;23.316;2023-01-04T05:44:09;20.83;;;12.57;;
9773;SDS011;4926;42.670;23.316;2023-01-04T05:46:35;20.15;;;13.88;;
9773;SDS011;4926;42.670;23.316;2023-01-04T05:49:03;18.08;;;12.57;;
9773;SDS011;4926;42.670;23.316;2023-01-04T05:51:30;18.88;;;12.15;;
9773;SDS011;4926;42.670;23.316;2023-01-04T05:53:57;21.30;;;12.82;;
9773;SDS011;4926;42.670;23.316;2023-01-04T05:56:23;18.48;;;12.75;;
9773;SDS011;4926;42.670;23.316;2023-01-04T05:58:52;19.55;;;12.43;;
9773;SDS011;4926;42.670;23.316;2023-01-04T06:01:21;18.00;;;12.48;;
9773;SDS011;4926;42.670;23.316;2023-01-04T06:03:50;19.92;;;12.45;;
9773;SDS011;4926;42.670;23.316;2023-01-04T06:06:18;16.38;;;11.93;;
9773;SDS011;4926;42.670;23.316;2023-01-04T06:08:45;16.27;;;12.18;;
9773;SDS011;4926;42.670;23.316;2023-01-04T06:11:11;18.02;;;12.13;;
9773;SDS011;4926;42.670;23.316;2023-01-04T06:13:46;16.88;;;12.18;;
9773;SDS011;4926;42.670;23.316;2023-01-04T06:16:12;14.52;;;11.57;;
9773;SDS011;4926;42.670;23.316;2023-01-04T06:18:39;15.85;;;11.27;;
9773;SDS011;4926;42.670;23.316;2023-01-04T06:21:07;16.40;;;12.65;;
9773;SDS011;4926;42.670;23.316;2023-01-04T06:23:35;15.30;;;11.13;;
9773;SDS011;4926;42.670;23.316;2023-01-04T06:26:02;15.02;;;10.90;;
9773;SDS011;4926;42.670;23.316;2023-01-04T06:28:29;18.08;;;11.18;;
9773;SDS011;4926;42.670;23.316;2023-01-04T06:30:55;16.02;;;11.95;;
9773;SDS011;4926;42.670;23.316;2023-01-04T06:33:24;16.55;;;11.63;;
9773;SDS011;4926;42.670;23.316;2023-01-04T06:35:55;14.55;;;10.90;;
9773;SDS011;4926;42.670;23.316;2023-01-04T06:38:22;17.95;;;12.77;;
9773;SDS011;4926;42.670;23.316;2023-01-04T06:40:52;16.48;;;11.98;;
9773;SDS011;4926;42.670;23.316;2023-01-04T06:43:18;15.63;;;11.85;;
9773;SDS011;4926;42.670;23.316;2023-01-04T06:45:45;16.38;;;11.65;;
9773;SDS011;4926;42.670;23.316;2023-01-04T06:48:12;15.90;;;11.88;;
9773;SDS011;4926;42.670;23.316;2023-01-04T06:50:38;19.65;;;12.30;;
9773;SDS011;4926;42.670;23.316;2023-01-04T06:53:05;15.27;;;11.23;;
9773;SDS011;4926;42.670;23.316;2023-01-04T06:55:37;15.80;;;11.93;;
9773;SDS011;4926;42.670;23.316;2023-01-04T06:58:05;16.55;;;11.50;;
9773;SDS011;4926;42.670;23.316;2023-01-04T07:00:31;16.13;;;11.75;;
9773;SDS011;4926;42.670;23.316;2023-01-04T07:03:01;15.57;;;11.68;;
9773;SDS011;4926;42.670;23.316;2023-01-04T07:05:31;15.27;;;11.27;;
9773;SDS011;4926;42.670;23.316;2023-01-04T07:08:03;18.77;;;11.88;;
9773;SDS011;4926;42.670;23.316;2023-01-04T07:10:30;19.80;;;11.13;;
9773;SDS011;4926;42.670;23.316;2023-01-04T07:12:58;18.02;;;11.57;;
9773;SDS011;4926;42.670;23.316;2023-01-04T07:15:27;15.15;;;11.27;;
9773;SDS011;4926;42.670;23.316;2023-01-04T07:17:53;15.68;;;10.52;;
9773;SDS011;4926;42.670;23.316;2023-01-04T07:20:20;14.43;;;11.75;;
9773;SDS011;4926;42.670;23.316;2023-01-04T07:22:47;14.50;;;10.85;;
9773;SDS011;4926;42.670;23.316;2023-01-04T07:25:13;16.45;;;11.50;;
9773;SDS011;4926;42.670;23.316;2023-01-04T07:27:40;15.25;;;11.13;;
9773;SDS011;4926;42.670;23.316;2023-01-04T07:30:07;17.52;;;12.07;;
9773;SDS011;4926;42.670;23.316;2023-01-04T07:32:36;15.27;;;11.50;;
9773;SDS011;4926;42.670;23.316;2023-01-04T07:35:03;16.48;;;10.70;;
9773;SDS011;4926;42.670;23.316;2023-01-04T07:37:30;16.17;;;11.57;;
9773;SDS011;4926;42.670;23.316;2023-01-04T07:39:57;17.50;;;11.25;;
9773;SDS011;4926;42.670;23.316;2023-01-04T07:42:25;14.80;;;11.43;;
9773;SDS011;4926;42.670;23.316;2023-01-04T07:44:53;14.40;;;11.00;;
9773;SDS011;4926;42.670;23.316;2023-01-04T07:47:20;15.52;;;11.30;;
9773;SDS011;4926;42.670;23.316;2023-01-04T07:49:48;15.48;;;11.23;;
9773;SDS011;4926;42.670;23.316;2023-01-04T07:52:26;16.98;;;11.88;;
9773;SDS011;4926;42.670;23.316;2023-01-04T07:54:53;14.05;;;10.70;;
9773;SDS011;4926;42.670;23.316;2023-01-04T07:57:19;15.25;;;11.20;;
9773;SDS011;4926;42.670;23.316;2023-01-04T07:59:51;15.10;;;11.32;;
9773;SDS011;4926;42.670;23.316;2023-01-04T08:02:18;16.73;;;11.57;;
9773;SDS011;4926;42.670;23.316;2023-01-04T08:04:44;17.15;;;11.77;;
9773;SDS011;4926;42.670;23.316;2023-01-04T08:07:12;15.50;;;11.38;;
9773;SDS011;4926;42.670;23.316;2023-01-04T08:09:39;17.10;;;11.27;;
9773;SDS011;4926;42.670;23.316;2023-01-04T08:12:06;14.70;;;10.93;;
9773;SDS011;4926;42.670;23.316;2023-01-04T08:14:35;16.00;;;10.43;;
9773;SDS011;4926;42.670;23.316;2023-01-04T08:17:02;15.43;;;11.48;;
9773;SDS011;4926;42.670;23.316;2023-01-04T08:19:30;15.07;;;11.00;;
9773;SDS011;4926;42.670;23.316;2023-01-04T08:21:56;13.55;;;10.30;;
9773;SDS011;4926;42.670;23.316;2023-01-04T08:24:27;19.17;;;10.95;;
9773;SDS011;4926;42.670;23.316;2023-01-04T08:26:54;14.63;;;10.18;;
9773;SDS011;4926;42.670;23.316;2023-01-04T08:29:20;12.50;;;9.45;;
9773;SDS011;4926;42.670;23.316;2023-01-04T08:31:47;14.68;;;10.82;;
9773;SDS011;4926;42.670;23.316;2023-01-04T08:34:14;15.07;;;11.45;;
9773;SDS011;4926;42.670;23.316;2023-01-04T08:36:45;16.15;;;11.73;;
9773;SDS011;4926;42.670;23.316;2023-01-04T08:39:18;16.42;;;11.38;;
9773;SDS011;4926;42.670;23.316;2023-01-04T08:41:47;16.00;;;11.10;;
9773;SDS011;4926;42.670;23.316;2023-01-04T08:44:17;17.38;;;10.82;;
9773;SDS011;4926;42.670;23.316;2023-01-04T08:46:45;17.05;;;11.48;;
9773;SDS011;4926;42.670;23.316;2023-01-04T08:49:12;16.27;;;11.55;;
9773;SDS011;4926;42.670;23.316;2023-01-04T08:51:39;15.82;;;11.05;;
9773;SDS011;4926;42.670;23.316;2023-01-04T08:54:06;17.42;;;12.02;;
9773;SDS011;4926;42.670;23.316;2023-01-04T08:56:33;14.68;;;10.82;;
9773;SDS011;4926;42.670;23.316;2023-01-04T08:59:01;16.38;;;11.88;;
9773;SDS011;4926;42.670;23.316;2023-01-04T09:01:30;15.63;;;10.57;;
9773;SDS011;4926;42.670;23.316;2023-01-04T09:03:57;17.08;;;11.48;;
9773;SDS011;4926;42.670;23.316;2023-01-04T09:06:25;14.93;;;11.10;;
9773;SDS011;4926;42.670;23.316;2023-01-04T09:08:52;13.40;;;10.27;;
9773;SDS011;4926;42.670;23.316;2023-01-04T09:11:21;17.10;;;12.27;;
9773;SDS011;4926;42.670;23.316;2023-01-04T09:13:48;18.38;;;11.63;;
9773;SDS011;4926;42.670;23.316;2023-01-04T09:16:24;15.43;;;11.45;;
9773;SDS011;4926;42.670;23.316;2023-01-04T09:18:50;14.85;;;11.75;;
9773;SDS011;4926;42.670;23.316;2023-01-04T09:21:20;16.95;;;12.25;;
9773;SDS011;4926;42.670;23.316;2023-01-04T09:23:47;21.08;;;12.80;;
9773;SDS011;4926;42.670;23.316;2023-01-04T09:26:15;18.27;;;12.77;;
9773;SDS011;4926;42.670;23.316;2023-01-04T09:28:43;18.05;;;11.18;;
9773;SDS011;4926;42.670;23.316;2023-01-04T09:31:10;16.35;;;11.57;;
9773;SDS011;4926;42.670;23.316;2023-01-04T09:33:40;14.68;;;11.05;;
9773;SDS011;4926;42.670;23.316;2023-01-04T09:36:07;13.70;;;10.82;;
9773;SDS011;4926;42.670;23.316;2023-01-04T09:38:39;15.25;;;11.23;;
9773;SDS011;4926;42.670;23.316;2023-01-04T09:41:07;14.88;;;11.00;;
9773;SDS011;4926;42.670;23.316;2023-01-04T09:43:45;13.20;;;10.45;;
9773;SDS011;4926;42.670;23.316;2023-01-04T09:46:15;14.60;;;10.30;;
9773;SDS011;4926;42.670;23.316;2023-01-04T09:48:49;17.88;;;11.60;;
9773;SDS011;4926;42.670;23.316;2023-01-04T09:51:29;13.77;;;10.10;;
9773;SDS011;4926;42.670;23.316;2023-01-04T09:54:05;14.98;;;10.95;;
9773;SDS011;4926;42.670;23.316;2023-01-04T09:56:40;16.38;;;10.75;;
9773;SDS011;4926;42.670;23.316;2023-01-04T09:59:14;15.43;;;10.50;;
9773;SDS011;4926;42.670;23.316;2023-01-04T10:01:44;15.60;;;11.30;;
9773;SDS011;4926;42.670;23.316;2023-01-04T10:04:17;14.30;;;10.40;;
9773;SDS011;4926;42.670;23.316;2023-01-04T10:06:51;16.35;;;11.43;;
9773;SDS011;4926;42.670;23.316;2023-01-04T10:09:18;15.73;;;12.07;;
9773;SDS011;4926;42.670;23.316;2023-01-04T10:11:50;15.75;;;11.32;;
9773;SDS011;4926;42.670;23.316;2023-01-04T10:14:40;16.58;;;11.40;;
9773;SDS011;4926;42.670;23.316;2023-01-04T10:17:30;15.88;;;12.20;;
9773;SDS011;4926;42.670;23.316;2023-01-04T10:20:21;15.52;;;11.65;;
9773;SDS011;4926;42.670;23.316;2023-01-04T10:23:01;17.50;;;11.43;;
9773;SDS011;4926;42.670;23.316;2023-01-04T10:25:38;15.20;;;10.77;;
9773;SDS011;4926;42.670;23.316;2023-01-04T10:28:21;15.75;;;11.40;;
9773;SDS011;4926;42.670;23.316;2023-01-04T10:31:01;19.08;;;11.95;;
9773;SDS011;4926;42.670;23.316;2023-01-04T10:33:34;14.50;;;10.68;;
9773;SDS011;4926;42.670;23.316;2023-01-04T10:36:15;15.75;;;11.98;;
9773;SDS011;4926;42.670;23.316;2023-01-04T10:38:44;21.17;;;13.40;;
9773;SDS011;4926;42.670;23.316;2023-01-04T10:41:18;16.90;;;11.40;;
9773;SDS011;4926;42.670;23.316;2023-01-04T10:43:54;18.05;;;11.73;;
9773;SDS011;4926;42.670;23.316;2023-01-04T10:46:31;19.00;;;11.68;;
9773;SDS011;4926;42.670;23.316;2023-01-04T10:49:05;19.63;;;13.05;;
9773;SDS011;4926;42.670;23.316;2023-01-04T10:51:39;16.45;;;12.30;;
9773;SDS011;4926;42.670;23.316;2023-01-04T10:54:12;19.88;;;13.27;;
9773;SDS011;4926;42.670;23.316;2023-01-04T10:56:48;20.80;;;13.80;;
9773;SDS011;4926;42.670;23.316;2023-01-04T10:59:19;17.58;;;11.80;;
9773;SDS011;4926;42.670;23.316;2023-01-04T11:01:52;17.23;;;12.77;;
9773;SDS011;4926;42.670;23.316;2023-01-04T11:04:26;19.38;;;13.57;;
9773;SDS011;4926;42.670;23.316;2023-01-04T11:07:04;18.02;;;12.95;;
9773;SDS011;4926;42.670;23.316;2023-01-04T11:09:34;18.98;;;13.65;;
9773;SDS011;4926;42.670;23.316;2023-01-04T11:12:07;19.20;;;14.63;;
9773;SDS011;4926;42.670;23.316;2023-01-04T11:14:37;23.27;;;15.45;;
9773;SDS011;4926;42.670;23.316;2023-01-04T11:17:04;16.23;;;13.07;;
9773;SDS011;4926;42.670;23.316;2023-01-04T11:19:34;19.20;;;12.68;;
9773;SDS011;4926;42.670;23.316;2023-01-04T11:22:02;19.67;;;13.50;;
9773;SDS011;4926;42.670;23.316;2023-01-04T11:24:37;18.83;;;11.98;;
9773;SDS011;4926;42.670;23.316;2023-01-04T11:27:11;16.50;;;11.32;;
9773;SDS011;4926;42.670;23.316;2023-01-04T11:29:43;16.60;;;11.75;;
9773;SDS011;4926;42.670;23.316;2023-01-04T11:32:16;13.90;;;9.55;;
9773;SDS011;4926;42.670;23.316;2023-01-04T11:34:50;16.67;;;10.77;;
9773;SDS011;4926;42.670;23.316;2023-01-04T11:37:24;15.07;;;11.50;;
9773;SDS011;4926;42.670;23.316;2023-01-04T11:40:09;12.75;;;9.32;;
9773;SDS011;4926;42.670;23.316;2023-01-04T11:42:38;15.85;;;10.73;;
9773;SDS011;4926;42.670;23.316;2023-01-04T11:45:05;12.80;;;10.00;;
9773;SDS011;4926;42.670;23.316;2023-01-04T11:47:45;15.98;;;11.38;;
9773;SDS011;4926;42.670;23.316;2023-01-04T11:50:27;14.25;;;10.68;;
9773;SDS011;4926;42.670;23.316;2023-01-04T11:58:41;13.25;;;9.27;;
9773;SDS011;4926;42.670;23.316;2023-01-04T12:01:20;13.13;;;10.00;;
9773;SDS011;4926;42.670;23.316;2023-01-04T12:03:47;17.00;;;10.40;;
9773;SDS011;4926;42.670;23.316;2023-01-04T12:06:16;15.32;;;10.95;;
9773;SDS011;4926;42.670;23.316;2023-01-04T12:08:44;15.63;;;10.98;;
9773;SDS011;4926;42.670;23.316;2023-01-04T12:11:16;14.88;;;10.43;;
9773;SDS011;4926;42.670;23.316;2023-01-04T12:13:45;13.85;;;10.38;;
9773;SDS011;4926;42.670;23.316;2023-01-04T12:16:15;13.50;;;10.45;;
9773;SDS011;4926;42.670;23.316;2023-01-04T12:18:49;18.88;;;9.98;;
9773;SDS011;4926;42.670;23.316;2023-01-04T12:21:20;15.27;;;9.63;;
9773;SDS011;4926;42.670;23.316;2023-01-04T12:23:48;13.65;;;9.77;;
9773;SDS011;4926;42.670;23.316;2023-01-04T12:26:17;11.85;;;9.75;;
9773;SDS011;4926;42.670;23.316;2023-01-04T12:28:45;14.18;;;9.40;;
9773;SDS011;4926;42.670;23.316;2023-01-04T12:31:27;14.63;;;9.98;;
9773;SDS011;4926;42.670;23.316;2023-01-04T12:33:56;13.15;;;9.52;;
9773;SDS011;4926;42.670;23.316;2023-01-04T12:36:52;13.57;;;10.45;;
9773;SDS011;4926;42.670;23.316;2023-01-04T12:39:35;13.32;;;9.77;;
9773;SDS011;4926;42.670;23.316;2023-01-04T12:42:12;13.70;;;9.77;;
9773;SDS011;4926;42.670;23.316;2023-01-04T12:47:41;15.85;;;10.40;;
9773;SDS011;4926;42.670;23.316;2023-01-04T12:50:29;12.23;;;9.73;;
9773;SDS011;4926;42.670;23.316;2023-01-04T12:53:02;14.10;;;9.98;;
9773;SDS011;4926;42.670;23.316;2023-01-04T13:01:34;13.75;;;10.02;;
9773;SDS011;4926;42.670;23.316;2023-01-04T13:04:02;13.93;;;9.93;;
9773;SDS011;4926;42.670;23.316;2023-01-04T13:06:45;13.80;;;9.43;;
9773;SDS011;4926;42.670;23.316;2023-01-04T13:09:15;14.35;;;10.40;;
9773;SDS011;4926;42.670;23.316;2023-01-04T13:11:59;13.52;;;10.20;;
9773;SDS011;4926;42.670;23.316;2023-01-04T13:14:34;13.00;;;10.00;;
9773;SDS011;4926;42.670;23.316;2023-01-04T13:17:16;13.93;;;10.18;;
9773;SDS011;4926;42.670;23.316;2023-01-04T13:19:46;18.42;;;9.85;;
9773;SDS011;4926;42.670;23.316;2023-01-04T13:22:17;13.68;;;10.50;;
9773;SDS011;4926;42.670;23.316;2023-01-04T13:24:46;15.82;;;11.63;;
9773;SDS011;4926;42.670;23.316;2023-01-04T13:27:16;15.95;;;11.57;;
9773;SDS011;4926;42.670;23.316;2023-01-04T13:29:45;15.93;;;12.30;;
9773;SDS011;4926;42.670;23.316;2023-01-04T13:32:14;17.42;;;10.98;;
9773;SDS011;4926;42.670;23.316;2023-01-04T13:34:49;16.92;;;12.80;;
9773;SDS011;4926;42.670;23.316;2023-01-04T13:37:24;18.30;;;11.52;;
9773;SDS011;4926;42.670;23.316;2023-01-04T13:40:00;16.48;;;12.30;;
9773;SDS011;4926;42.670;23.316;2023-01-04T13:42:38;17.10;;;12.05;;
9773;SDS011;4926;42.670;23.316;2023-01-04T13:48:15;17.83;;;13.00;;
9773;SDS011;4926;42.670;23.316;2023-01-04T13:50:45;22.70;;;12.90;;
9773;SDS011;4926;42.670;23.316;2023-01-04T13:53:25;17.90;;;12.02;;
9773;SDS011;4926;42.670;23.316;2023-01-04T13:55:54;21.33;;;12.02;;
9773;SDS011;4926;42.670;23.316;2023-01-04T13:58:22;16.15;;;11.93;;
9773;SDS011;4926;42.670;23.316;2023-01-04T14:00:51;15.60;;;12.02;;
9773;SDS011;4926;42.670;23.316;2023-01-04T14:03:29;21.20;;;12.55;;
9773;SDS011;4926;42.670;23.316;2023-01-04T14:06:10;18.75;;;12.48;;
9773;SDS011;4926;42.670;23.316;2023-01-04T14:08:40;18.92;;;14.63;;
9773;SDS011;4926;42.670;23.316;2023-01-04T14:11:15;22.25;;;13.55;;
9773;SDS011;4926;42.670;23.316;2023-01-04T14:14:12;16.58;;;12.20;;
9773;SDS011;4926;42.670;23.316;2023-01-04T14:16:48;18.00;;;11.85;;
9773;SDS011;4926;42.670;23.316;2023-01-04T14:19:30;18.58;;;13.27;;
9773;SDS011;4926;42.670;23.316;2023-01-04T14:22:23;19.67;;;14.23;;
9773;SDS011;4926;42.670;23.316;2023-01-04T14:24:55;20.05;;;14.43;;
9773;SDS011;4926;42.670;23.316;2023-01-04T14:27:31;19.27;;;13.60;;
9773;SDS011;4926;42.670;23.316;2023-01-04T14:29:59;18.70;;;12.70;;
9773;SDS011;4926;42.670;23.316;2023-01-04T14:32:30;19.45;;;13.10;;
9773;SDS011;4926;42.670;23.316;2023-01-04T14:35:09;21.05;;;14.75;;
9773;SDS011;4926;42.670;23.316;2023-01-04T14:37:39;22.95;;;15.15;;
9773;SDS011;4926;42.670;23.316;2023-01-04T14:40:12;22.73;;;14.48;;
9773;SDS011;4926;42.670;23.316;2023-01-04T14:42:44;20.30;;;13.63;;
9773;SDS011;4926;42.670;23.316;2023-01-04T14:45:12;19.38;;;14.18;;
9773;SDS011;4926;42.670;23.316;2023-01-04T14:47:39;17.30;;;13.20;;
9773;SDS011;4926;42.670;23.316;2023-01-04T14:50:08;18.67;;;12.60;;
9773;SDS011;4926;42.670;23.316;2023-01-04T14:52:38;21.38;;;13.98;;
9773;SDS011;4926;42.670;23.316;2023-01-04T14:55:05;24.63;;;14.18;;
9773;SDS011;4926;42.670;23.316;2023-01-04T14:57:32;20.88;;;13.93;;
9773;SDS011;4926;42.670;23.316;2023-01-04T15:00:02;17.98;;;13.45;;
9773;SDS011;4926;42.670;23.316;2023-01-04T15:02:29;20.58;;;13.55;;
9773;SDS011;4926;42.670;23.316;2023-01-04T15:04:57;20.77;;;13.48;;
9773;SDS011;4926;42.670;23.316;2023-01-04T15:07:30;22.05;;;14.43;;
9773;SDS011;4926;42.670;23.316;2023-01-04T15:10:04;22.25;;;15.20;;
9773;SDS011;4926;42.670;23.316;2023-01-04T15:12:33;23.58;;;15.20;;
9773;SDS011;4926;42.670;23.316;2023-01-04T15:15:00;24.10;;;15.60;;
9773;SDS011;4926;42.670;23.316;2023-01-04T15:17:26;26.75;;;16.10;;
9773;SDS011;4926;42.670;23.316;2023-01-04T15:19:53;20.77;;;14.23;;
9773;SDS011;4926;42.670;23.316;2023-01-04T15:22:20;21.83;;;14.38;;
9773;SDS011;4926;42.670;23.316;2023-01-04T15:24:48;21.05;;;14.43;;
9773;SDS011;4926;42.670;23.316;2023-01-04T15:27:15;23.08;;;14.85;;